Fort Steele, Canada
Current Conditions -  °F | °C
As of 7:00 PM on Friday 28 Nov 2014 (Local Time) from CYXC Reporting Station
Rain Showers Rain Showers  
Wind Chill: 35°   Ceiling: 6000
Heat Index: 41°   Visibility: 15mi
Dew Point: 39°   Wind: 10mph
Humidity: 93%   Direction: 130°SE
Pressure: 29.1"   Gusts: 21mph
Location:  49.62°N, 115.63°W
Report Text: CYXC 290200Z 13009G18KT 100V180 15SM -SHRA FEW030 BKN060 OVC080 05/04 A2910 RMK SC2SC4AC2 CVCTV CLD EMBD PRESFR SLP865 DENSITY ALT 3500FT
Loading
Personal Weather Stations






























Interactive Weather Map New forecast layout! Learn more

10-Day Weather Forecast

Advertisements
Track Severe Weather on mobile